aviador You're here:

KOZR Decoded Metar

OZARK/CAIRNS AAF in AL, USA
Report Time2017-09-25 19:56:00
UTC Time2017-09-25 20:31:33
Flight Rules vfr VFR
Wind040° at 04 kt
W.Decomp.*RWY 06: 3.8 kt HW 1.2 kt LCW
RWY 36: 2.9 kt HW 2.7 kt RCW
W.Rank040° ranks 2
Current wind is below 040° avg. (5.1)
Visibility9999 m
Phenomena:N/A
Clouds:Broken 065 Hf
Expected CloudBase > 4,400 ft AGL from Temp-Dew spread
Ceiling6,500 ft
Temp30°C (ISA +16)
Dew Point19°C (52% RH)
Heat Index31.4°C
QNH1013 hPa
Density Alt2,385 ft
Elevation305 ft
Report Wrong Elevation
Raw Report
KOZR 251956Z AUTO 04004KT 10SM BKN065 30/19 A2990 RMK AO2 SLP124
T02980192=

Extra information for KOZR:More info

Metar Taf Metar & Taf Last 4 Metars F.Rules Stats Wind Profile Meteogram Temp Stats Airport Information Weather charts Add Link Nearby VenuesMetar ALERT Operation Metar Decoded Social comments

AIRNAV info for KOZR